Time;durP1;ratioP1;P1;durP2;ratioP2;P2;SDS_P1;SDS_P2;PMS_P1;PMS_P2;Temp;Humidity;BMP_temperature;BMP_pressure;BME280_temperature;BME280_humidity;BME280_pressure;Samples;Min_cycle;Max_cycle;Signal;HPM_P1;HPM_P2
2022/07/20 00:01:29;;;;;;;14.07;8.25;;;17.80;99.90;;;18.18;100.00;99382.28;5008446;28;118365;-75
2022/07/20 00:03:58;;;;;;;11.70;8.20;;;17.90;99.90;;;18.26;100.00;99378.53;5007457;28;119040;-76
2022/07/20 00:06:27;;;;;;;10.25;7.47;;;17.90;99.90;;;18.33;100.00;99384.13;5022025;28;130357;-73
2022/07/20 00:11:43;;;;;;;12.03;7.83;;;17.70;99.90;;;18.37;100.00;99372.41;5022002;28;119849;-77
2022/07/20 00:14:12;;;;;;;13.63;8.57;;;17.70;99.90;;;18.31;100.00;99386.47;5021902;28;120128;-75
2022/07/20 00:16:40;;;;;;;12.00;8.32;;;17.70;99.90;;;18.26;100.00;99380.47;5020228;28;131046;-70
2022/07/20 00:19:09;;;;;;;11.77;8.25;;;17.70;99.90;;;18.23;100.00;99379.28;5021570;28;129683;-75
2022/07/20 00:21:37;;;;;;;11.02;7.90;;;17.60;99.90;;;18.19;100.00;99389.38;5021955;28;119330;-74
2022/07/20 00:24:07;;;;;;;11.50;8.40;;;17.60;99.90;;;18.17;100.00;99385.41;5021678;28;119729;-74
2022/07/20 00:26:36;;;;;;;14.93;9.10;;;17.60;99.90;;;18.15;100.00;99385.78;5020237;28;131763;-75
2022/07/20 00:29:06;;;;;;;12.13;7.63;;;17.60;99.90;;;18.13;100.00;99379.84;5021584;28;130209;-73
2022/07/20 00:31:34;;;;;;;12.60;8.75;;;17.60;99.90;;;18.10;100.00;99375.88;5021691;28;120108;-71
2022/07/20 00:34:03;;;;;;;11.73;8.65;;;17.60;99.90;;;18.10;100.00;99380.59;5007229;28;118164;-74
2022/07/20 00:36:32;;;;;;;12.57;8.50;;;17.60;99.90;;;18.05;100.00;99378.16;5020198;28;129726;-72
2022/07/20 00:39:00;;;;;;;12.75;9.00;;;17.60;99.90;;;18.04;100.00;99371.06;5021084;28;129613;-73
2022/07/20 00:41:29;;;;;;;12.18;7.93;;;17.50;99.90;;;17.99;100.00;99385.09;5020183;28;122912;-71
2022/07/20 00:44:01;;;;;;;11.52;8.60;;;17.50;99.90;;;17.96;100.00;99370.94;5021423;28;122089;-71
2022/07/20 00:46:34;;;;;;;11.07;8.75;;;17.50;99.90;;;17.96;100.00;99376.41;5006197;28;128752;-73
2022/07/20 00:49:03;;;;;;;14.25;8.60;;;17.60;99.90;;;17.98;100.00;99372.53;5021149;28;130032;-74
2022/07/20 00:51:33;;;;;;;14.35;9.13;;;17.60;99.90;;;18.00;100.00;99375.69;4989764;28;119512;-73
2022/07/20 00:54:02;;;;;;;12.75;8.77;;;17.50;99.90;;;17.99;100.00;99369.41;5021455;28;119828;-71
2022/07/20 00:56:31;;;;;;;10.20;8.00;;;17.50;99.90;;;17.93;100.00;99379.88;5020880;28;129994;-73
2022/07/20 00:58:59;;;;;;;12.57;8.88;;;17.60;99.90;;;17.96;100.00;99365.44;5023007;28;130415;-72
2022/07/20 01:01:28;;;;;;;13.05;8.48;;;17.50;99.90;;;17.96;100.00;99373.66;5023038;28;119179;-74
2022/07/20 01:03:58;;;;;;;13.27;8.18;;;17.50;99.90;;;17.99;100.00;99363.13;5021197;28;119496;-75
2022/07/20 01:06:27;;;;;;;11.63;7.88;;;17.50;99.90;;;18.04;100.00;99365.56;5022367;28;130401;-72
2022/07/20 01:08:56;;;;;;;11.45;8.10;;;17.50;99.90;;;18.03;100.00;99364.78;5005981;28;129706;-75
2022/07/20 01:11:24;;;;;;;11.25;7.82;;;17.50;99.90;;;17.99;100.00;99358.44;5021474;28;119386;-71
2022/07/20 01:14:00;;;;;;;11.45;8.48;;;17.50;99.90;;;17.94;100.00;99362.28;5021001;28;120305;-72
2022/07/20 01:16:28;;;;;;;14.47;8.83;;;17.40;99.90;;;17.85;100.00;99364.41;5022525;28;129011;-75
2022/07/20 01:18:59;;;;;;;16.10;8.88;;;17.40;99.90;;;17.78;100.00;99369.78;5020652;28;129613;-73
2022/07/20 01:21:29;;;;;;;13.23;8.05;;;17.30;99.90;;;17.74;100.00;99366.19;5022761;28;118981;-70
2022/07/20 01:23:58;;;;;;;11.88;8.90;;;17.30;99.90;;;17.69;100.00;99371.97;5021353;28;119715;-73
2022/07/20 01:26:27;;;;;;;11.93;8.85;;;17.20;99.90;;;17.63;100.00;99367.94;5020524;28;130746;-76
2022/07/20 01:28:55;;;;;;;13.35;9.52;;;17.10;99.90;;;17.56;100.00;99358.41;5020563;28;129408;-73
2022/07/20 01:31:25;;;;;;;13.27;9.63;;;17.10;99.90;;;17.53;100.00;99358.31;4987947;28;121061;-72
2022/07/20 01:33:53;;;;;;;12.38;9.40;;;17.10;99.90;;;17.45;100.00;99360.13;5020633;28;121757;-71
2022/07/20 01:36:22;;;;;;;14.20;9.52;;;17.00;99.90;;;17.41;100.00;99353.78;5020349;28;130023;-73
2022/07/20 01:38:52;;;;;;;12.65;9.82;;;16.90;99.90;;;17.35;100.00;99342.28;5020259;28;129429;-73
2022/07/20 01:41:21;;;;;;;14.43;10.45;;;16.80;99.90;;;17.28;100.00;99355.06;5005633;28;118627;-75
2022/07/20 01:43:50;;;;;;;13.25;9.80;;;16.80;99.90;;;17.27;100.00;99345.25;5020409;28;119544;-74
2022/07/20 01:46:18;;;;;;;12.85;9.38;;;16.80;99.90;;;17.21;100.00;99345.53;5020468;28;130359;-74
2022/07/20 01:48:47;;;;;;;12.65;10.02;;;16.80;99.90;;;17.20;100.00;99341.22;5020564;28;129541;-74
2022/07/20 01:51:15;;;;;;;14.07;10.38;;;16.80;99.90;;;17.20;100.00;99345.88;5020396;28;119719;-79
2022/07/20 01:53:43;;;;;;;14.82;10.40;;;16.80;99.90;;;17.18;100.00;99337.25;5019445;28;119541;-73
2022/07/20 01:56:14;;;;;;;16.98;10.23;;;16.70;99.90;;;17.19;100.00;99339.63;5020185;28;129878;-72
2022/07/20 01:58:42;;;;;;;16.17;9.73;;;16.80;99.90;;;17.15;100.00;99338.75;5005455;28;129408;-73
2022/07/20 02:01:11;;;;;;;15.73;9.65;;;16.80;99.90;;;17.14;100.00;99331.69;5021010;28;119683;-76
2022/07/20 02:03:40;;;;;;;15.98;10.63;;;16.80;99.90;;;17.13;100.00;99329.31;5002229;28;119406;-75
2022/07/20 02:06:09;;;;;;;14.10;10.55;;;16.70;99.90;;;17.14;100.00;99337.19;5020352;28;129903;-72
2022/07/20 02:08:39;;;;;;;13.30;10.45;;;16.70;99.90;;;17.09;100.00;99329.22;5005286;28;128639;-75
2022/07/20 02:11:07;;;;;;;14.77;10.82;;;16.70;99.90;;;17.10;100.00;99314.34;5020288;28;119836;-74
2022/07/20 02:13:38;;;;;;;14.25;10.52;;;16.70;99.90;;;17.09;100.00;99315.50;5002833;28;119366;-75
2022/07/20 02:18:56;;;;;;;15.77;10.60;;;16.60;99.90;;;17.10;100.00;99319.84;5005213;28;128659;-74
2022/07/20 02:21:26;;;;;;;15.25;9.85;;;16.60;99.90;;;17.10;100.00;99314.34;5018834;28;122788;-74
2022/07/20 02:23:54;;;;;;;14.55;10.23;;;16.60;99.90;;;17.11;100.00;99315.16;5020081;28;122139;-73
2022/07/20 02:26:23;;;;;;;18.30;11.63;;;16.60;99.90;;;17.10;100.00;99311.63;5019366;28;131209;-74
2022/07/20 02:28:53;;;;;;;17.08;11.00;;;16.60;99.90;;;17.10;100.00;99314.34;5019911;28;129330;-75
2022/07/20 02:31:23;;;;;;;15.65;11.18;;;16.60;99.90;;;17.12;100.00;99309.31;5005180;28;119158;-74
2022/07/20 02:33:53;;;;;;;14.02;10.35;;;16.60;99.90;;;17.15;100.00;99318.75;5020053;28;119709;-74
2022/07/20 02:36:22;;;;;;;14.20;10.70;;;16.60;99.90;;;17.14;100.00;99320.72;5019735;28;130130;-74
2022/07/20 02:38:51;;;;;;;15.45;10.70;;;16.60;99.90;;;17.16;100.00;99323.88;5002559;28;129592;-80
2022/07/20 02:41:19;;;;;;;15.32;10.45;;;16.60;99.90;;;17.17;100.00;99322.75;5005530;28;118749;-77
2022/07/20 02:43:48;;;;;;;15.90;11.25;;;16.50;99.90;;;17.21;100.00;99323.59;5021700;28;118325;-74
2022/07/20 02:46:18;;;;;;;14.48;10.50;;;16.50;99.90;;;17.26;100.00;99328.00;5003286;28;128783;-75
2022/07/20 02:48:46;;;;;;;14.50;10.80;;;16.50;99.90;;;17.29;100.00;99323.75;5019509;28;129600;-74
2022/07/20 02:51:15;;;;;;;18.13;11.25;;;16.50;99.90;;;17.30;100.00;99328.88;5019759;28;119436;-74
2022/07/20 02:53:43;;;;;;;13.77;10.07;;;16.50;99.90;;;17.34;100.00;99328.94;5001345;28;119744;-73
2022/07/20 02:56:12;;;;;;;15.23;10.48;;;16.50;99.90;;;17.39;100.00;99325.91;5019188;28;130638;-74
2022/07/20 02:58:40;;;;;;;14.82;10.55;;;16.40;99.90;;;17.44;100.00;99325.63;5021597;27;129651;-74
2022/07/20 03:01:10;;;;;;;16.23;10.27;;;16.50;99.90;;;17.52;100.00;99341.06;5023200;28;119955;-73
2022/07/20 03:03:40;;;;;;;15.40;9.55;;;16.50;99.90;;;17.60;100.00;99325.53;5023656;28;119325;-72
2022/07/20 03:06:08;;;;;;;14.02;10.10;;;16.50;99.90;;;17.56;100.00;99325.47;5022960;28;130215;-73
2022/07/20 03:08:37;;;;;;;15.40;10.00;;;16.50;99.90;;;17.56;100.00;99330.97;5004839;28;129573;-73
2022/07/20 03:11:05;;;;;;;15.63;10.68;;;16.50;99.90;;;17.54;100.00;99330.50;5022298;28;122510;-75
2022/07/20 03:13:34;;;;;;;15.25;9.80;;;16.50;99.90;;;17.54;100.00;99327.78;5005041;28;121811;-74
2022/07/20 03:16:02;;;;;;;16.23;11.05;;;16.50;99.90;;;17.55;100.00;99337.59;5007914;28;129747;-75
2022/07/20 03:18:31;;;;;;;14.85;10.65;;;16.50;99.90;;;17.58;100.00;99338.84;5022427;28;129890;-74
2022/07/20 03:21:01;;;;;;;15.25;10.02;;;16.50;99.90;;;18.02;100.00;99338.47;5008380;28;118490;-72
2022/07/20 03:23:29;;;;;;;13.30;9.50;;;16.60;99.90;;;18.01;100.00;99338.84;5008145;28;118225;-73
2022/07/20 03:25:58;;;;;;;16.23;9.73;;;16.60;99.90;;;17.88;100.00;99336.28;5022363;28;130054;-72
2022/07/20 03:28:27;;;;;;;13.73;9.70;;;16.50;99.90;;;17.90;100.00;99328.50;4991207;28;129838;-71
2022/07/20 03:30:56;;;;;;;17.52;9.80;;;16.60;99.90;;;17.95;100.00;99336.41;5006723;28;119665;-75
2022/07/20 03:33:24;;;;;;;13.90;10.23;;;16.60;99.90;;;17.83;100.00;99331.06;5022707;28;119391;-74
2022/07/20 03:35:53;;;;;;;14.43;10.77;;;16.60;99.90;;;17.83;100.00;99333.81;5021216;28;129886;-73
2022/07/20 03:38:23;;;;;;;16.42;10.65;;;16.60;99.90;;;17.81;100.00;99344.38;5022334;28;129642;-76
2022/07/20 03:40:51;;;;;;;13.00;9.93;;;16.60;99.90;;;17.95;100.00;99349.31;5025000;28;118387;-73
2022/07/20 03:43:21;;;;;;;14.25;9.57;;;16.70;99.90;;;18.04;100.00;99340.88;5008297;28;118533;-74
2022/07/20 03:45:49;;;;;;;13.57;8.90;;;16.80;99.90;;;18.40;100.00;99338.72;5023770;28;129609;-74
2022/07/20 03:48:19;;;;;;;15.48;10.25;;;17.10;99.90;;;18.52;100.00;99346.75;5007586;28;128494;-74
2022/07/20 03:50:48;;;;;;;13.88;9.13;;;17.00;99.90;;;18.65;100.00;99339.09;5022362;28;119572;-73
2022/07/20 03:53:16;;;;;;;14.05;9.93;;;17.00;99.90;;;18.57;100.00;99343.69;5024160;28;119536;-75
2022/07/20 03:55:46;;;;;;;13.88;9.98;;;16.90;99.90;;;18.68;100.00;99336.41;5022090;28;130471;-75
2022/07/20 03:58:15;;;;;;;14.00;9.07;;;17.00;99.90;;;18.55;100.00;99340.53;5021396;28;129998;-75
2022/07/20 04:00:43;;;;;;;15.60;10.50;;;16.80;99.90;;;18.52;100.00;99344.00;5021537;28;122108;-75
2022/07/20 04:03:12;;;;;;;14.88;9.48;;;16.80;99.90;;;18.51;100.00;99350.66;5022924;28;122109;-75
2022/07/20 04:05:40;;;;;;;16.35;9.63;;;16.80;99.90;;;18.55;100.00;99339.75;5021948;28;130472;-75
2022/07/20 04:08:09;;;;;;;13.60;10.20;;;16.90;99.90;;;18.72;100.00;99332.94;5021829;28;129902;-75
2022/07/20 04:10:37;;;;;;;11.75;8.63;;;17.10;99.90;;;18.89;100.00;99337.13;4987262;28;118449;-73
2022/07/20 04:13:08;;;;;;;12.05;9.00;;;17.20;99.90;;;19.06;100.00;99342.06;5019243;28;119338;-74
2022/07/20 04:15:36;;;;;;;13.57;9.05;;;17.40;99.90;;;19.07;99.67;99342.84;5006834;28;129075;-74
2022/07/20 04:18:05;;;;;;;15.88;8.70;;;17.30;99.90;;;19.07;99.43;99338.13;5004348;28;129297;-77
2022/07/20 04:20:33;;;;;;;15.27;9.05;;;17.30;99.90;;;19.10;98.86;99336.63;5021853;28;119560;-73
2022/07/20 04:23:02;;;;;;;13.32;8.48;;;17.30;99.90;;;19.13;98.72;99341.38;5022286;28;119572;-74
2022/07/20 04:25:30;;;;;;;11.27;8.30;;;17.30;99.90;;;19.18;98.47;99338.28;5002005;28;129749;-70
2022/07/20 04:27:59;;;;;;;13.48;8.63;;;17.50;99.90;;;19.28;97.40;99337.63;5021822;28;130069;-75
2022/07/20 04:30:31;;;;;;;14.35;9.05;;;17.60;99.90;;;19.39;96.78;99348.78;5006835;28;119711;-73
2022/07/20 04:33:00;;;;;;;12.07;8.45;;;17.70;99.90;;;19.56;95.91;99352.91;5022170;28;119862;-76
2022/07/20 04:35:29;;;;;;;12.35;8.82;;;18.10;99.90;;;19.64;93.80;99349.06;5006617;28;128947;-71
2022/07/20 04:37:57;;;;;;;11.40;8.05;;;18.10;99.90;;;19.32;94.38;99349.50;4990189;28;128361;-73
2022/07/20 04:40:26;;;;;;;12.88;8.13;;;18.00;99.90;;;18.83;97.92;99344.88;5006576;28;119068;-74
2022/07/20 04:42:55;;;;;;;14.23;7.60;;;18.00;99.90;;;19.21;96.98;99343.84;5022393;28;119246;-74
2022/07/20 04:45:23;;;;;;;10.88;7.50;;;18.30;99.90;;;19.35;95.13;99346.00;5021159;28;129962;-74
2022/07/20 04:47:54;;;;;;;11.95;7.90;;;18.40;99.90;;;19.50;93.31;99354.41;5006651;28;128716;-76
2022/07/20 04:50:22;;;;;;;12.85;7.40;;;18.40;99.90;;;19.37;93.70;99351.91;5021982;28;120973;-75
2022/07/20 04:52:51;;;;;;;12.10;7.88;;;18.30;99.90;;;19.42;93.49;99347.25;5021614;28;121791;-75
2022/07/20 04:55:20;;;;;;;10.68;7.97;;;18.40;99.90;;;19.37;93.33;99357.41;5021323;28;129902;-77
2022/07/20 04:57:48;;;;;;;11.73;8.13;;;18.40;99.90;;;19.31;94.08;99341.59;5022338;28;130183;-75
2022/07/20 05:00:18;;;;;;;12.82;7.45;;;18.50;99.90;;;19.81;91.79;99341.41;5007472;28;118866;-77
2022/07/20 05:02:47;;;;;;;13.18;7.03;;;18.80;99.90;;;19.44;92.48;99344.91;5021777;28;120448;-76
2022/07/20 05:05:17;;;;;;;11.57;7.00;;;18.50;99.90;;;19.85;89.85;99343.03;5022862;28;130125;-78
2022/07/20 05:07:45;;;;;;;11.55;6.82;;;18.70;99.90;;;20.00;88.80;99338.44;5022001;28;129354;-74
2022/07/20 05:10:14;;;;;;;11.95;6.38;;;18.80;99.90;;;19.55;89.96;99334.81;5021593;28;120128;-78
2022/07/20 05:12:42;;;;;;;13.50;7.28;;;18.60;99.90;;;19.86;89.78;99324.53;4989931;28;118836;-75
2022/07/20 05:15:11;;;;;;;13.93;5.97;;;18.80;99.90;;;19.85;88.54;99320.19;5020035;28;130310;-76
2022/07/20 05:17:40;;;;;;;10.65;6.15;;;18.80;99.90;;;20.15;87.73;99322.03;5020829;28;129607;-75
2022/07/20 05:20:10;;;;;;;8.82;6.05;;;18.90;99.90;;;20.36;84.94;99319.47;5021226;28;119647;-77
2022/07/20 05:22:40;;;;;;;8.95;5.65;;;19.00;99.90;;;19.91;85.66;99324.19;5021154;27;120018;-78
2022/07/20 05:25:10;;;;;;;9.50;5.70;;;18.90;99.90;;;19.49;88.79;99311.53;5006442;28;129028;-77
2022/07/20 05:27:38;;;;;;;9.38;6.15;;;18.80;99.90;;;19.69;87.50;99310.19;5020474;28;129829;-76
2022/07/20 05:30:08;;;;;;;18.75;6.43;;;18.90;99.90;;;19.91;88.16;99308.47;5022415;28;119376;-76
2022/07/20 05:32:37;;;;;;;10.30;5.53;;;19.10;99.90;;;20.08;84.56;99317.25;5023609;28;120037;-76
2022/07/20 05:35:08;;;;;;;10.18;5.65;;;19.20;99.90;;;20.22;82.44;99308.34;5021424;28;129965;-74
2022/07/20 05:37:37;;;;;;;7.63;5.38;;;19.20;99.90;;;20.43;82.03;99305.75;5002397;28;130091;-74
2022/07/20 05:40:09;;;;;;;8.15;5.53;;;19.40;99.90;;;20.69;79.79;99301.19;5019603;28;122149;-75
2022/07/20 05:42:38;;;;;;;9.40;5.05;;;19.20;99.90;;;20.69;77.67;99301.19;5021039;28;122015;-76
2022/07/20 05:45:07;;;;;;;9.60;4.78;;;19.20;99.90;;;20.71;78.51;99303.56;5021129;28;130555;-77
2022/07/20 05:47:36;;;;;;;8.20;4.60;;;19.40;99.90;;;20.65;78.98;99301.19;5005692;28;128484;-76
2022/07/20 05:50:06;;;;;;;8.80;4.70;;;19.30;99.90;;;20.39;81.41;99304.91;5005990;28;118661;-77
2022/07/20 05:52:34;;;;;;;8.57;4.93;;;19.40;99.90;;;20.67;80.70;99297.28;5020679;28;119765;-76
2022/07/20 05:55:04;;;;;;;9.02;5.32;;;19.60;99.90;;;20.70;81.62;99297.28;5020335;28;129922;-76
2022/07/20 05:57:35;;;;;;;8.93;5.32;;;19.60;99.90;;;21.19;79.08;99284.91;5005710;28;129012;-76
2022/07/20 06:00:06;;;;;;;8.02;4.90;;;19.70;99.90;;;21.03;77.98;99312.03;5020461;28;119896;-75
2022/07/20 06:02:34;;;;;;;7.65;4.70;;;19.50;99.90;;;21.31;76.33;99302.28;5020566;28;119331;-74
2022/07/20 06:05:03;;;;;;;9.82;5.20;;;19.60;99.90;;;21.40;74.79;99316.53;5018985;28;130918;-76
2022/07/20 06:07:32;;;;;;;8.05;4.85;;;19.60;99.90;;;21.35;74.75;99314.16;5019809;28;129075;-74
2022/07/20 06:10:01;;;;;;;6.43;3.95;;;19.50;99.90;;;20.93;73.05;99323.81;5020395;28;120269;-78
2022/07/20 06:12:29;;;;;;;7.80;4.57;;;19.60;99.90;;;21.28;72.25;99330.66;5006154;28;119510;-77
2022/07/20 06:15:00;;;;;;;6.60;4.55;;;19.90;99.90;;;20.85;73.39;99335.97;5020397;28;129591;-78
2022/07/20 06:17:35;;;;;;;8.25;4.05;;;19.60;99.90;;;20.68;73.97;99329.97;5019526;28;130176;-76
2022/07/20 06:20:07;;;;;;;7.82;4.05;;;19.50;99.90;;;20.56;74.72;99344.81;5020706;28;119600;-77
2022/07/20 06:22:36;;;;;;;6.50;3.67;;;19.60;99.90;;;20.38;74.96;99325.41;5005777;28;118698;-79
2022/07/20 06:25:07;;;;;;;6.07;3.72;;;19.50;99.90;;;20.71;73.39;99323.69;5005572;28;128994;-77
2022/07/20 06:27:36;;;;;;;7.35;4.00;;;19.80;99.90;;;20.40;73.05;99312.03;5005198;28;128894;-77
2022/07/20 06:30:09;;;;;;;6.65;4.00;;;19.50;99.90;;;20.88;72.13;99321.41;5019220;28;121852;-75
2022/07/20 06:32:37;;;;;;;8.13;3.83;;;19.70;99.90;;;20.50;72.56;99326.25;5005149;28;121007;-76
2022/07/20 06:35:08;;;;;;;9.48;4.63;;;19.50;99.90;;;20.63;72.96;99316.50;5020631;28;129381;-76
2022/07/20 06:37:38;;;;;;;7.18;3.72;;;19.50;99.90;;;20.68;73.64;99315.38;5002014;28;129743;-74
2022/07/20 06:40:09;;;;;;;7.00;4.03;;;19.50;99.90;;;20.92;71.91;99294.66;5018736;28;119676;-74
2022/07/20 06:42:37;;;;;;;6.97;3.95;;;19.70;99.90;;;20.59;73.22;99304.66;5019952;28;121073;-75
2022/07/20 06:45:09;;;;;;;7.20;4.15;;;19.50;99.90;;;20.25;75.06;99304.81;5001674;28;129855;-80
2022/07/20 06:47:37;;;;;;;8.05;4.68;;;19.40;99.90;;;21.07;73.05;99301.81;5005181;28;131518;-75
2022/07/20 06:50:07;;;;;;;7.65;4.32;;;19.80;99.90;;;20.98;73.00;99290.34;5021768;28;119509;-75
2022/07/20 06:52:36;;;;;;;5.85;4.07;;;19.80;99.90;;;21.39;71.49;99295.63;5023295;28;119086;-74
2022/07/20 06:55:06;;;;;;;6.93;3.85;;;19.80;99.90;;;21.50;67.52;99296.47;5020173;28;130125;-76
2022/07/20 06:57:34;;;;;;;9.27;3.67;;;19.90;99.90;;;21.63;67.78;99312.66;5022229;28;130802;-80
2022/07/20 07:00:04;;;;;;;8.70;4.25;;;19.70;99.90;;;20.89;70.63;99298.16;5021347;28;120110;-80
2022/07/20 07:02:34;;;;;;;7.82;4.25;;;19.50;99.90;;;21.30;68.46;99292.44;5020495;28;120209;-74
2022/07/20 07:05:02;;;;;;;6.68;3.85;;;19.80;99.90;;;21.29;68.24;99299.16;5019441;28;129737;-75
2022/07/20 07:07:31;;;;;;;7.35;3.88;;;19.90;99.90;;;20.88;67.91;99324.97;5021440;28;129434;-75
2022/07/20 07:10:00;;;;;;;7.85;3.97;;;19.70;99.90;;;20.93;68.04;99301.75;5020154;28;120115;-78
2022/07/20 07:12:28;;;;;;;6.53;3.80;;;19.90;99.90;;;21.08;66.50;99306.13;5020547;28;119868;-77
2022/07/20 07:14:57;;;;;;;6.13;3.70;;;19.90;99.90;;;21.30;66.14;99284.16;5015518;28;130099;-75
2022/07/20 07:17:25;;;;;;;6.70;3.42;;;19.90;99.90;;;20.99;66.69;99308.47;5018764;28;129148;-78
2022/07/20 07:19:56;;;;;;;10.07;4.47;;;19.70;99.90;;;20.86;68.51;99310.75;4999881;28;121435;-79
2022/07/20 07:22:24;;;;;;;10.32;3.53;;;19.70;99.90;;;20.83;67.95;99317.84;5000702;28;120639;-74
2022/07/20 07:24:52;;;;;;;6.03;3.60;;;20.00;99.90;;;20.54;69.96;99310.56;4998340;28;129894;-76
2022/07/20 07:27:22;;;;;;;5.90;3.40;;;19.70;99.90;;;20.60;69.14;99311.75;4996959;28;129477;-74
2022/07/20 07:29:50;;;;;;;9.68;3.60;;;19.50;99.90;;;20.63;69.43;99310.97;4998652;28;119401;-75
2022/07/20 07:32:18;;;;;;;7.95;4.05;;;19.50;99.90;;;20.97;69.03;99311.63;4983103;28;118213;-80
2022/07/20 07:34:48;;;;;;;6.90;4.05;;;20.00;99.90;;;21.42;66.08;99303.13;4997444;28;129650;-78
2022/07/20 07:37:18;;;;;;;5.97;3.08;;;20.00;99.90;;;21.54;66.14;99313.81;4989536;28;130945;-78
2022/07/20 07:39:47;;;;;;;5.90;3.55;;;20.10;99.90;;;20.73;66.91;99315.81;4999084;28;119740;-79
2022/07/20 07:42:15;;;;;;;7.35;4.15;;;19.40;99.90;;;20.17;68.91;99319.72;4999109;28;119378;-75
2022/07/20 07:44:44;;;;;;;9.15;4.57;;;19.10;99.90;;;20.03;70.39;99307.38;4997333;28;130069;-78
2022/07/20 07:47:12;;;;;;;11.52;4.45;;;19.10;99.90;;;20.20;69.00;99318.94;4986844;28;128424;-76
2022/07/20 07:49:41;;;;;;;6.20;3.40;;;19.40;99.90;;;19.52;70.36;99308.03;5002550;28;119812;-77
2022/07/20 07:52:10;;;;;;;6.95;3.28;;;18.80;99.90;;;19.91;71.05;99297.47;5003421;28;119358;-75
2022/07/20 07:54:40;;;;;;;8.93;3.83;;;19.20;99.90;;;20.66;67.13;99290.94;5001841;28;130504;-79
2022/07/20 07:57:08;;;;;;;7.78;3.63;;;19.60;99.90;;;21.21;64.88;99281.78;5000755;28;129008;-81
2022/07/20 07:59:37;;;;;;;7.50;3.75;;;19.60;99.90;;;21.52;62.97;99279.53;4997804;28;119462;-75
2022/07/20 08:02:05;;;;;;;7.00;3.50;;;19.60;97.80;;;21.34;63.45;99285.75;5002670;28;119511;-74
2022/07/20 08:04:34;;;;;;;8.45;3.42;;;19.90;96.70;;;21.77;59.98;99287.84;5000864;28;129867;-75
2022/07/20 08:07:03;;;;;;;6.47;3.63;;;19.70;93.80;;;21.57;60.91;99298.47;5000588;28;130575;-73
2022/07/20 08:09:31;;;;;;;7.95;3.33;;;19.90;93.90;;;21.62;59.92;99300.06;5000106;28;122574;-77
2022/07/20 08:12:02;;;;;;;7.15;3.42;;;20.00;80.20;;;21.13;62.94;99286.47;4984140;28;122254;-78
2022/07/20 08:14:30;;;;;;;6.40;3.55;;;19.90;93.90;;;20.58;64.53;99294.81;5002588;28;128810;-76
2022/07/20 08:16:59;;;;;;;8.13;3.35;;;19.40;93.70;;;20.80;63.54;99285.53;5001469;28;129932;-78
2022/07/20 08:19:28;;;;;;;6.88;3.30;;;19.80;91.60;;;21.28;60.92;99297.56;5001491;28;119841;-76
2022/07/20 08:21:57;;;;;;;6.57;3.10;;;19.90;78.10;;;20.79;60.64;99300.50;5002433;28;119345;-77
2022/07/20 08:24:26;;;;;;;7.30;3.33;;;19.80;65.80;;;20.83;61.60;99300.50;5001492;28;130079;-79
2022/07/20 08:26:54;;;;;;;4.45;2.80;;;20.20;66.20;;;21.26;57.31;99294.41;5003744;28;129125;-78
2022/07/20 08:29:24;;;;;;;5.35;2.90;;;20.40;37.60;;;21.42;54.83;99286.56;5001898;28;120239;-77
2022/07/20 08:31:53;;;;;;;5.28;2.80;;;20.40;25.70;;;20.93;56.28;99296.22;4986951;28;118798;-76
2022/07/20 08:34:21;;;;;;;7.53;3.22;;;19.90;37.20;;;20.81;58.33;99292.59;5000261;28;130694;-76
2022/07/20 08:36:50;;;;;;;7.20;3.38;;;20.00;37.30;;;20.96;56.71;99287.19;5001461;28;130050;-76
2022/07/20 08:39:18;;;;;;;6.32;2.88;;;20.30;33.70;;;20.70;54.52;99297.28;5001914;28;119955;-76
2022/07/20 08:41:48;;;;;;;7.53;2.60;;;19.90;19.10;;;21.17;55.95;99290.00;4986337;28;118693;-74
2022/07/20 08:44:16;;;;;;;7.40;3.03;;;20.40;26.30;;;21.46;53.19;99301.16;4999027;28;130389;-79
2022/07/20 08:46:46;;;;;;;6.32;2.63;;;20.40;12.40;;;20.76;53.01;99301.25;5001210;28;129124;-73
2022/07/20 08:49:16;;;;;;;5.55;2.10;;;19.90;9.00;;;20.63;53.60;99328.34;4999937;28;120578;-78
2022/07/20 08:51:44;;;;;;;7.40;2.92;;;20.00;10.00;;;20.76;54.47;99306.78;5000529;28;119066;-75
2022/07/20 08:54:13;;;;;;;4.55;2.00;;;20.10;13.90;;;21.13;54.01;99316.00;5001245;28;130311;-75
2022/07/20 08:56:42;;;;;;;6.53;2.40;;;20.50;11.30;;;21.15;49.40;99322.72;5002863;28;130784;-74
2022/07/20 08:59:10;;;;;;;5.45;2.20;;;20.20;1.00;;;21.57;48.79;99319.78;5001868;28;122172;-76
2022/07/20 09:02:03;;;;;;;4.63;2.50;;;20.30;1.00;;;21.45;51.51;99338.22;4969766;28;120352;-78
2022/07/20 09:04:32;;;;;;;6.03;2.47;;;20.30;2.50;;;21.04;53.66;99338.44;5000800;28;130198;-74
2022/07/20 09:07:00;;;;;;;4.03;2.22;;;20.10;8.80;;;21.07;54.64;99342.41;4982827;28;129489;-75
2022/07/20 09:09:29;;;;;;;3.63;2.00;;;20.20;14.00;;;21.15;54.48;99316.44;4993175;28;119572;-82
2022/07/20 09:11:58;;;;;;;4.78;1.88;;;20.30;13.60;;;21.30;52.34;99336.59;5001067;28;120072;-76
2022/07/20 09:14:48;;;;;;;3.97;1.70;;;20.50;1.00;;;20.59;48.83;99346.03;5000615;28;130079;-74
2022/07/20 09:17:22;;;;;;;3.88;1.98;;;19.90;1.00;;;20.24;49.89;99341.78;4981830;28;129499;-77
2022/07/20 09:20:00;;;;;;;5.95;1.90;;;19.70;1.00;;;20.38;50.50;99352.16;5000855;28;119978;-76
2022/07/20 09:22:35;;;;;;;5.35;1.70;;;19.70;1.00;;;20.16;50.63;99337.41;5000691;28;119781;-77
2022/07/20 09:25:14;;;;;;;3.03;1.80;;;19.50;1.00;;;20.40;50.99;99339.59;4999359;28;129861;-76
2022/07/20 09:27:43;;;;;;;3.03;1.60;;;19.90;1.00;;;20.56;50.30;99339.28;5001614;28;128867;-74
2022/07/20 09:30:15;;;;;;;3.33;1.35;;;20.10;1.00;;;20.43;48.47;99333.31;5000834;28;119426;-75
2022/07/20 09:32:56;;;;;;;5.25;1.50;;;19.80;1.00;;;20.30;50.17;99323.75;5000570;28;119916;-78
2022/07/20 09:35:28;;;;;;;7.82;1.60;;;19.90;1.00;;;20.32;51.21;99337.13;5000402;28;129775;-76
2022/07/20 09:38:03;;;;;;;3.13;1.48;;;19.80;1.00;;;20.38;50.41;99330.09;5000146;28;129056;-74
2022/07/20 09:40:41;;;;;;;2.43;1.30;;;19.80;1.00;;;20.42;49.70;99320.69;4992287;28;119787;-78
2022/07/20 09:43:25;;;;;;;2.08;1.20;;;20.00;1.00;;;20.72;50.68;99314.22;5002704;28;120018;-75
2022/07/20 09:45:55;;;;;;;4.70;1.60;;;20.10;1.00;;;20.89;50.85;99314.72;5003681;28;129685;-74
2022/07/20 09:48:25;;;;;;;2.63;1.40;;;20.20;1.00;;;20.91;50.56;99312.34;5000097;28;129349;-77
2022/07/20 09:50:53;;;;;;;3.95;1.10;;;20.00;1.00;;;20.63;50.09;99316.50;4998926;28;122512;-77
2022/07/20 09:53:23;;;;;;;3.17;1.33;;;19.90;1.00;;;20.37;48.25;99315.53;5000605;28;122766;-78
2022/07/20 09:55:54;;;;;;;3.80;1.50;;;19.70;1.00;;;20.51;49.92;99322.34;5000159;28;130051;-73
2022/07/20 09:58:25;;;;;;;4.63;1.30;;;20.00;1.00;;;20.54;49.17;99325.13;5000974;28;129012;-78
2022/07/20 10:00:54;;;;;;;2.50;1.45;;;19.90;1.00;;;20.67;49.19;99346.91;5000494;28;119547;-78
2022/07/20 10:03:25;;;;;;;3.13;1.30;;;20.10;1.00;;;20.44;49.03;99339.59;5000127;28;120056;-76
2022/07/20 10:05:54;;;;;;;3.47;1.30;;;19.90;1.00;;;20.50;49.62;99343.59;4999848;28;130309;-80
2022/07/20 10:08:24;;;;;;;2.25;1.35;;;20.00;1.00;;;20.99;48.91;99347.09;5000118;28;129378;-76
2022/07/20 10:10:53;;;;;;;3.03;1.13;;;20.40;1.00;;;20.74;49.77;99352.44;5002115;28;119525;-78
2022/07/20 10:13:22;;;;;;;4.13;1.40;;;20.00;1.00;;;20.40;48.12;99356.13;4989148;28;120082;-78
2022/07/20 10:16:05;;;;;;;4.00;1.10;;;19.70;1.00;;;20.16;49.86;99362.19;4993767;28;130625;-75
2022/07/20 10:18:35;;;;;;;3.13;1.20;;;19.60;1.00;;;20.41;49.69;99377.00;4999624;28;129613;-77
2022/07/20 10:21:43;;;;;;;3.22;1.10;;;19.90;1.00;;;20.50;48.63;99353.81;4999545;28;120458;-75